Terminal Aerodrome Forecast
Issued by NWS Pocatello, ID

Home | Current Version | Previous Version | Text Only | Print | Product List | Glossary On
Versions: 1 2 3 4 5 6 7 8 9 10 11 12 13 14 15 16 17 18 19 20 21
228
FTUS45 KPIH 060520
TAFBYI
TAF
KBYI 060520Z 0606/0706 VRB05KT P6SM FEW050
     FM061200 VRB06KT P6SM VCSH SCT020 BKN040
     FM062000 VRB06KT 4SM -SN OVC020
     FM070300 27009KT P6SM VCSH OVC040=

USA.gov is the U.S. government's official web portal to all federal, state and local government web resources and services.